EDLV/NRN METAR and TAF weather

Enter ICAO airport designator
Station Type Date Time Source
EDLV METAR 2021/05/11 21:50 UTC NOAA

EDLV 112150Z 26005KT CAVOK 12/12 Q1010


Station Type Date Time Source
EDLV Decoded METAR 2021/05/11 21:50 UTC NOAA

Niederrhein, Germany (EDLV) 51-36-09N 006-08-32E
May 11, 2021 - 05:50 PM EDT / 2021.05.11 2150 UTC
Wind: from the W (260 degrees) at 6 MPH (5 KT):0
Visibility: greater than 7 mile(s):0
Temperature: 53 F (12 C)
Dew Point: 53 F (12 C)
Relative Humidity: 100%
Pressure (altimeter): 29.83 in. Hg (1010 hPa)
ob: EDLV 112150Z 26005KT CAVOK 12/12 Q1010
cycle: 22

Station Type Date Time Source
EDLV TAF 2021/05/11 22:03 UTC NOAA

TAF
AMD TAF
AMD EDLV 112250Z 1122/1218 CNL

Example: see airport list